Aeroporto :
LOGIN :

Iscrizione | Disclaimer

   EN    FR    IT 

 










Sommario :    VFR   VFR Marginale   IFR   IFR Intensivo   IFR Molto Intensivo
Visibilità : 
Base nubi : 
>= 8 km
>= 3000ft
5 / 8 km
1000 / 3000 ft
1500m / 5 km
500 / 1000 ft
800 / 1500m
200 / 500 ft
< 800m
< 200 ft
Simboli :   Temporali  Nebbia  Neve Forte  Precipitazioni Forti  Vento > 20 kt
SIGMETs :   Varie  Temporali  Ghiacco  Turbolenza  Onda orograficha  Ceneri Vulcaniche






- Altitudine del aeroporto : 160 ft
- Codice IATA : FMO


EDDG - Münster Osnabrück Int.

ULTIMO METAR :
  • 192150Z 18006KT 9999 SCT040 04/M01 Q1019 NOSIG

METARs OBSOLETI :
  • 192120Z 18005KT 160V220 CAVOK 04/M01 Q1019 NOSIG
  • 192050Z 19005KT CAVOK 04/M01 Q1019 NOSIG
  • 192020Z 20005KT 170V230 CAVOK 04/M01 Q1019 NOSIG
  • 191950Z 22006KT 180V240 CAVOK 05/M01 Q1020 NOSIG
  • 191920Z 23007KT CAVOK 05/M00 Q1020 NOSIG

TAF TAF EDDG
Valido dal 19 a 18 ore il 20 a 18 ore UTC


191700Z 1918/2018 22010KT 9999 SCT035
TEMPO 2000/2010 4000 RADZ BKN010
PROB30
TEMPO 2005/2008 BKN008
BECMG 2009/2012 21015G25KT



MetMap, La meteo Aeronautica in un colpo d'occhio ! - Copyright ORBIFLY Dicembre 2007 - Disclaimer

ORBIFLY MET'MAP TEAM :

Programmazione e sviluppo : Alexandra Zaïnal
Concezione : Baudouin d'Aumeries
Aiuto per la programmazione : Marc-Olivier Méhu
Supporto tecnico e logistico : Manuel Goepfert
Aiuto per la traduzione : Arnaldo La Scala

Contatto : metmap@orbifly.com




FONTI E CREDITI :

   NOAA